CheckWX is a tool to help pilots better visualize weather data.  It is not intended as a substitute for an official pre-flight weather briefing.

04:39:12 UTC

LJMB TAF
Maribor Airport
Slovenia
TAF LJMB 230200Z 2303/2403 35003KT CAVOK BECMG 2309/2311 17004KT BECMG 2318/2320 VRB02KT

Mar-23@
03:00 UTC

Mar-23 @ 03:00 UTC

Mar-23@
09:00 UTC

Mar-23 @ 09:00 UTC

TAF LJMB 230200Z 2303/2403 35003KT CAVOK
Wind
  • 350° at 3 KTS
Conditions
No significant weather
Cloud Levels
  • No significant clouds

Mar-23@
09:00 UTC

Mar-23 @ 09:00 UTC

Mar-23@
18:00 UTC

Mar-23 @ 18:00 UTC

BECMG 2309/2311 17004KT

Becoming

Becoming Conditions expected by Sat, Mar 23, 2019 @ 11:00 UTC

Wind
  • 170° at 4 KTS
Conditions
No significant weather
Cloud Levels
  • No significant clouds

Mar-23@
18:00 UTC

Mar-23 @ 18:00 UTC

Mar-24@
03:00 UTC

Mar-24 @ 03:00 UTC

BECMG 2318/2320 VRB02KT

Becoming

Becoming Conditions expected by Sat, Mar 23, 2019 @ 20:00 UTC

Wind
  • Variable at 2 KTS
Conditions
No significant weather
Cloud Levels
  • No significant clouds